Time;durP1;ratioP1;P1;durP2;ratioP2;P2;SDS_P1;SDS_P2;PMS_P1;PMS_P2;Temp;Humidity;BMP_temperature;BMP_pressure;BME280_temperature;BME280_humidity;BME280_pressure;Samples;Min_cycle;Max_cycle;Signal;HPM_P1;HPM_P2
2022/10/15 00:00:37;;;;;;;23.88;12.32;;;11.10;99.90;;;;;;5076582;28;20417;-75
2022/10/15 00:03:03;;;;;;;24.50;12.05;;;11.20;99.90;;;;;;5076091;28;20021;-75
2022/10/15 00:05:28;;;;;;;25.50;12.07;;;11.20;99.90;;;;;;5074670;28;20031;-75
2022/10/15 00:07:54;;;;;;;24.90;12.85;;;11.30;99.90;;;;;;5075922;28;20037;-75
2022/10/15 00:10:20;;;;;;;40.90;13.45;;;11.30;99.90;;;;;;5075958;28;20376;-75
2022/10/15 00:12:45;;;;;;;25.23;13.02;;;11.30;99.90;;;;;;5076552;28;20066;-75
2022/10/15 00:15:11;;;;;;;29.40;14.38;;;11.40;99.90;;;;;;5074505;28;20536;-75
2022/10/15 00:17:37;;;;;;;26.95;12.88;;;11.40;99.90;;;;;;5075786;28;20028;-75
2022/10/15 00:20:06;;;;;;;25.20;12.93;;;11.50;99.90;;;;;;5076491;28;20025;-75
2022/10/15 00:22:31;;;;;;;26.80;13.52;;;11.50;99.90;;;;;;5075593;28;20119;-75
2022/10/15 00:24:57;;;;;;;26.40;13.40;;;11.50;99.90;;;;;;5075649;28;20083;-75
2022/10/15 00:27:23;;;;;;;30.88;13.88;;;11.50;99.90;;;;;;5076136;28;20036;-75
2022/10/15 00:29:48;;;;;;;32.08;13.88;;;11.60;99.90;;;;;;5076038;28;20460;-75
2022/10/15 00:32:14;;;;;;;31.02;14.55;;;11.60;99.90;;;;;;5074443;28;20064;-75
2022/10/15 00:34:40;;;;;;;27.27;14.35;;;11.60;99.90;;;;;;5075545;28;20021;-75
2022/10/15 00:37:06;;;;;;;35.45;14.23;;;11.70;99.90;;;;;;5075989;28;20391;-75
2022/10/15 00:39:31;;;;;;;30.58;13.80;;;11.70;99.90;;;;;;5075403;28;20073;-75
2022/10/15 00:41:57;;;;;;;38.75;15.52;;;11.80;99.90;;;;;;5074060;28;20020;-75
2022/10/15 00:44:27;;;;;;;29.08;14.48;;;11.80;99.90;;;;;;5075347;28;20020;-75
2022/10/15 00:47:12;;;;;;;28.75;15.00;;;11.80;99.90;;;;;;5075264;28;20024;-75
2022/10/15 00:49:59;;;;;;;30.75;14.45;;;11.80;99.90;;;;;;5073869;28;20443;-75
2022/10/15 00:52:44;;;;;;;31.02;16.08;;;11.80;99.90;;;;;;5073929;28;20119;-75
2022/10/15 00:55:16;;;;;;;30.58;15.00;;;11.80;99.90;;;;;;5075174;28;20099;-75
2022/10/15 00:57:43;;;;;;;33.88;15.02;;;11.80;99.90;;;;;;5075620;28;20025;-75
2022/10/15 01:00:14;;;;;;;25.42;13.77;;;11.80;99.90;;;;;;5074957;28;20025;-75
2022/10/15 01:02:40;;;;;;;31.38;15.07;;;11.70;99.90;;;;;;5072812;28;20035;-75
2022/10/15 01:05:07;;;;;;;27.25;13.93;;;11.70;99.90;;;;;;5074996;28;20130;-75
2022/10/15 01:07:32;;;;;;;30.80;14.70;;;11.70;99.90;;;;;;5073523;28;20036;-75
2022/10/15 01:10:01;;;;;;;28.15;13.75;;;11.60;99.90;;;;;;5073425;28;20047;-75
2022/10/15 01:12:33;;;;;;;;;;;11.60;99.90;;;;;;5075138;28;20024;-76
2022/10/15 01:15:06;;;;;;;26.85;13.18;;;11.50;99.90;;;;;;5074790;28;20342;-75
2022/10/15 01:18:05;;;;;;;35.63;15.55;;;11.50;99.90;;;;;;5074657;28;20400;-75
2022/10/15 01:20:37;;;;;;;30.77;14.32;;;11.40;99.90;;;;;;5063595;28;20033;-75
2022/10/15 01:23:05;;;;;;;28.85;13.85;;;11.40;99.90;;;;;;5074455;28;20029;-75
2022/10/15 01:25:47;;;;;;;34.70;13.73;;;11.40;99.90;;;;;;5074531;28;20051;-75
2022/10/15 01:28:34;;;;;;;31.30;14.82;;;11.30;99.90;;;;;;5074412;28;20028;-75
2022/10/15 01:31:16;;;;;;;30.15;14.73;;;11.30;99.90;;;;;;5074179;28;20028;-75
2022/10/15 01:33:49;;;;;;;33.42;13.85;;;11.30;99.90;;;;;;5073013;28;20514;-75
2022/10/15 01:36:57;;;;;;;36.72;15.68;;;11.30;99.90;;;;;;5074402;28;20043;-75
2022/10/15 01:39:30;;;;;;;37.78;16.42;;;11.30;99.90;;;;;;5043104;28;20044;-75
2022/10/15 01:42:02;;;;;;;39.03;17.23;;;11.20;99.90;;;;;;5074070;28;20024;-75
2022/10/15 01:44:40;;;;;;;35.38;16.85;;;11.20;99.90;;;;;;5074155;28;20505;-76
2022/10/15 01:47:13;;;;;;;37.45;15.60;;;11.10;99.90;;;;;;5072847;28;20040;-75
2022/10/15 01:49:42;;;;;;;35.53;16.40;;;11.10;99.90;;;;;;5073890;28;20388;-75
2022/10/15 01:52:15;;;;;;;39.63;17.52;;;11.10;99.90;;;;;;5072606;28;20036;-75
2022/10/15 01:54:42;;;;;;;34.80;16.83;;;11.10;99.90;;;;;;5073957;28;20218;-75
2022/10/15 01:57:10;;;;;;;37.63;16.75;;;11.10;99.90;;;;;;5072596;28;20052;-75
2022/10/15 01:59:35;;;;;;;34.85;15.77;;;11.10;99.90;;;;;;5073828;28;20029;-75
2022/10/15 02:02:01;;;;;;;37.47;16.48;;;11.10;99.90;;;;;;5073858;28;20063;-75
2022/10/15 02:04:29;;;;;;;36.85;17.48;;;11.20;99.90;;;;;;5073795;28;20056;-75
2022/10/15 02:07:12;;;;;;;40.40;16.75;;;11.10;99.90;;;;;;5073844;28;20024;-75
2022/10/15 02:09:59;;;;;;;34.65;16.20;;;11.30;99.90;;;;;;5074080;28;20120;-75
2022/10/15 02:12:50;;;;;;;34.05;16.95;;;11.20;99.90;;;;;;5074135;28;20028;-75
2022/10/15 02:15:38;;;;;;;43.17;17.90;;;11.30;99.90;;;;;;5073430;28;20017;-75
2022/10/15 02:18:14;;;;;;;36.88;17.02;;;11.30;99.90;;;;;;5073575;28;20047;-75
2022/10/15 02:20:55;;;;;;;47.15;19.95;;;11.40;99.90;;;;;;5073491;28;20030;-75
2022/10/15 02:23:24;;;;;;;47.50;19.25;;;11.40;99.90;;;;;;5072273;28;20074;-75
2022/10/15 02:25:52;;;;;;;41.88;19.05;;;11.50;99.90;;;;;;5073548;28;20081;-75
2022/10/15 02:28:18;;;;;;;45.20;19.00;;;11.50;99.90;;;;;;5073996;28;20372;-75
2022/10/15 02:30:47;;;;;;;49.95;20.10;;;11.50;99.90;;;;;;5072027;28;20025;-75
2022/10/15 02:33:15;;;;;;;41.80;18.27;;;11.50;99.90;;;;;;5073373;28;20027;-75
2022/10/15 02:35:42;;;;;;;42.93;18.53;;;11.50;99.90;;;;;;5073381;28;20107;-75
2022/10/15 02:38:21;;;;;;;37.95;18.05;;;11.50;99.90;;;;;;5073941;28;20074;-75
2022/10/15 02:40:48;;;;;;;40.13;18.85;;;11.50;99.90;;;;;;5071934;28;20035;-75
2022/10/15 02:43:17;;;;;;;39.92;18.08;;;11.50;99.90;;;;;;5073277;28;20016;-75
2022/10/15 02:45:43;;;;;;;43.22;18.60;;;11.50;99.90;;;;;;5073739;28;20428;-75
2022/10/15 02:48:08;;;;;;;44.58;19.50;;;11.50;99.90;;;;;;5073497;28;20052;-75
2022/10/15 02:50:34;;;;;;;40.53;17.65;;;11.40;99.90;;;;;;5073060;23;20041;-74
2022/10/15 02:52:59;;;;;;;39.67;17.67;;;11.40;99.90;;;;;;5035219;28;20461;-74
2022/10/15 02:55:25;;;;;;;37.15;17.45;;;12.10;99.90;;;;;;5053024;28;20029;-74
2022/10/15 02:57:51;;;;;;;39.80;17.48;;;11.40;99.90;;;;;;5035151;28;20060;-74
2022/10/15 03:00:17;;;;;;;48.63;17.88;;;11.30;99.90;;;;;;5029670;28;20503;-74
2022/10/15 03:02:44;;;;;;;38.58;17.65;;;11.30;99.90;;;;;;5033072;28;20034;-74
2022/10/15 03:05:09;;;;;;;42.17;17.45;;;11.20;99.90;;;;;;5033065;28;20116;-74
2022/10/15 03:07:35;;;;;;;37.33;17.85;;;11.10;99.90;;;;;;5032894;28;20068;-74
2022/10/15 03:10:01;;;;;;;37.28;17.45;;;11.10;99.90;;;;;;5015282;28;20396;-74
2022/10/15 03:12:26;;;;;;;42.60;16.85;;;10.90;99.90;;;;;;5032887;28;20025;-74
2022/10/15 03:14:52;;;;;;;36.25;18.38;;;10.90;99.90;;;;;;5032955;28;20021;-74
2022/10/15 03:17:18;;;;;;;35.85;16.33;;;10.90;99.90;;;;;;5032950;28;20018;-74
2022/10/15 03:19:44;;;;;;;38.92;17.58;;;10.80;99.90;;;;;;5032848;28;20036;-74
2022/10/15 03:22:09;;;;;;;34.72;16.40;;;10.80;99.90;;;;;;5015177;28;20021;-74
2022/10/15 03:24:35;;;;;;;41.17;17.80;;;10.70;99.90;;;;;;5015451;28;20468;-73
2022/10/15 03:27:00;;;;;;;41.95;18.95;;;10.70;99.90;;;;;;5017611;28;20041;-74
2022/10/15 03:29:26;;;;;;;41.85;17.70;;;10.70;99.90;;;;;;5036748;28;20029;-74
2022/10/15 03:31:52;;;;;;;38.40;16.65;;;10.60;99.90;;;;;;5036701;28;20056;-73
2022/10/15 03:34:17;;;;;;;44.15;18.08;;;10.60;99.90;;;;;;5018937;28;20021;-74
2022/10/15 03:36:43;;;;;;;41.97;17.80;;;10.50;99.90;;;;;;5037144;28;20057;-74
2022/10/15 03:39:10;;;;;;;40.42;18.60;;;10.50;99.90;;;;;;5036635;28;20025;-74
2022/10/15 03:41:36;;;;;;;38.97;18.25;;;10.50;99.90;;;;;;5018664;28;20071;-74
2022/10/15 03:44:06;;;;;;;39.15;17.08;;;10.50;99.90;;;;;;5018701;28;20064;-74
2022/10/15 03:46:33;;;;;;;42.42;18.55;;;10.40;99.90;;;;;;5036498;28;20029;-74
2022/10/15 03:48:59;;;;;;;46.78;20.30;;;10.40;99.90;;;;;;5036454;28;20071;-74
2022/10/15 03:51:27;;;;;;;36.55;17.90;;;11.40;99.90;;;;;;5036213;28;20033;-74
2022/10/15 03:53:53;;;;;;;42.17;17.60;;;10.40;99.90;;;;;;5018610;28;20045;-74
2022/10/15 03:56:34;;;;;;;41.42;18.10;;;10.30;99.90;;;;;;5036199;28;20017;-74
2022/10/15 03:58:59;;;;;;;38.70;17.80;;;10.30;99.90;;;;;;5036712;28;20109;-74
2022/10/15 04:01:25;;;;;;;36.15;16.42;;;10.30;99.90;;;;;;5036185;28;20104;-74
2022/10/15 04:03:52;;;;;;;44.10;17.55;;;10.30;99.90;;;;;;5036060;28;20025;-74
2022/10/15 04:06:18;;;;;;;40.28;17.77;;;10.30;99.90;;;;;;5036076;28;20017;-74
2022/10/15 04:08:43;;;;;;;43.13;19.60;;;10.20;99.90;;;;;;5036010;28;20514;-74
2022/10/15 04:11:09;;;;;;;40.10;17.73;;;10.20;99.90;;;;;;5018137;28;20492;-74
2022/10/15 04:13:34;;;;;;;41.17;17.35;;;10.30;99.90;;;;;;5018229;28;20029;-74
2022/10/15 04:16:04;;;;;;;42.13;16.70;;;10.20;99.90;;;;;;5018189;28;20025;-74
2022/10/15 04:18:29;;;;;;;37.50;16.08;;;10.20;99.90;;;;;;5035856;28;20385;-74
2022/10/15 04:20:58;;;;;;;40.58;17.58;;;10.20;99.90;;;;;;5018056;28;20022;-74
2022/10/15 04:23:24;;;;;;;37.15;17.55;;;10.20;99.90;;;;;;5035724;28;20025;-74
2022/10/15 04:25:49;;;;;;;47.28;18.05;;;10.10;99.90;;;;;;5035724;28;20029;-74
2022/10/15 04:28:15;;;;;;;41.63;17.38;;;10.20;99.90;;;;;;5035587;28;20083;-74
2022/10/15 04:30:40;;;;;;;38.83;18.17;;;10.30;99.90;;;;;;5035554;28;20032;-74
2022/10/15 04:33:06;;;;;;;37.95;16.80;;;10.30;99.90;;;;;;5036040;28;20033;-74
2022/10/15 04:35:33;;;;;;;39.00;18.10;;;10.30;99.90;;;;;;5035557;28;20024;-74
2022/10/15 04:37:59;;;;;;;40.53;17.42;;;10.40;99.90;;;;;;5035880;28;20014;-74
2022/10/15 04:40:25;;;;;;;34.15;17.48;;;10.30;99.90;;;;;;5035356;28;20030;-74
2022/10/15 04:42:51;;;;;;;37.05;16.52;;;10.50;99.90;;;;;;5035974;28;20361;-74
2022/10/15 04:45:16;;;;;;;38.80;18.88;;;10.50;99.90;;;;;;5035356;28;20387;-74
2022/10/15 04:47:42;;;;;;;38.75;18.92;;;10.60;99.90;;;;;;5035910;28;20026;-73
2022/10/15 04:50:08;;;;;;;41.90;19.73;;;10.80;99.90;;;;;;5034947;28;20037;-74
2022/10/15 04:52:34;;;;;;;46.03;19.70;;;11.00;99.90;;;;;;5035223;28;20366;-74
2022/10/15 04:55:01;;;;;;;48.60;20.10;;;11.10;99.90;;;;;;5017451;28;20029;-74
2022/10/15 04:57:27;;;;;;;44.58;20.08;;;11.30;99.90;;;;;;5035176;28;20017;-74
2022/10/15 04:59:53;;;;;;;50.75;20.55;;;11.50;99.90;;;;;;5035118;28;20515;-74
2022/10/15 05:02:19;;;;;;;45.75;19.92;;;11.50;99.90;;;;;;5017338;28;20025;-74
2022/10/15 05:04:44;;;;;;;41.55;20.90;;;11.60;99.90;;;;;;5017192;28;20025;-74
2022/10/15 05:07:10;;;;;;;41.90;21.58;;;11.70;99.90;;;;;;5034983;28;20542;-74
2022/10/15 05:09:35;;;;;;;37.88;19.10;;;11.70;99.90;;;;;;5034891;28;20478;-74
2022/10/15 05:12:01;;;;;;;44.35;19.50;;;11.80;99.90;;;;;;5034809;28;20018;-74
2022/10/15 05:14:27;;;;;;;44.63;19.30;;;11.80;99.90;;;;;;5017033;28;20056;-74
2022/10/15 05:16:52;;;;;;;41.88;19.85;;;11.80;99.90;;;;;;5034772;28;20017;-74
2022/10/15 05:19:18;;;;;;;37.53;18.77;;;11.80;99.90;;;;;;5034656;28;20603;-74
2022/10/15 05:21:43;;;;;;;40.50;19.95;;;11.80;99.90;;;;;;5034570;28;20028;-73
2022/10/15 05:24:10;;;;;;;40.35;19.67;;;11.90;99.90;;;;;;5034664;28;20477;-74
2022/10/15 05:26:36;;;;;;;42.28;20.77;;;11.90;99.90;;;;;;5016980;28;20087;-76
2022/10/15 05:29:02;;;;;;;50.50;22.67;;;11.90;99.90;;;;;;5034456;28;20519;-76
2022/10/15 05:31:30;;;;;;;59.42;23.85;;;12.00;99.90;;;;;;5016648;28;20026;-76
2022/10/15 05:33:57;;;;;;;47.60;21.80;;;12.10;99.90;;;;;;5016713;28;20059;-76
2022/10/15 05:36:27;;;;;;;66.60;23.15;;;12.10;99.90;;;;;;5034356;28;20033;-76
2022/10/15 05:38:56;;;;;;;55.45;23.27;;;12.10;99.90;;;;;;5016567;28;20021;-76
2022/10/15 05:41:22;;;;;;;68.97;25.65;;;12.20;99.90;;;;;;5034352;28;20087;-76
2022/10/15 05:43:53;;;;;;;59.80;25.10;;;12.20;99.90;;;;;;5016536;28;20049;-76
2022/10/15 05:46:18;;;;;;;61.08;24.40;;;12.20;99.90;;;;;;5034181;28;20083;-76
2022/10/15 05:48:49;;;;;;;68.57;25.17;;;12.30;99.90;;;;;;5015914;28;20017;-76
2022/10/15 05:51:15;;;;;;;71.95;25.63;;;12.20;99.90;;;;;;5033796;28;20068;-76
2022/10/15 05:53:42;;;;;;;73.72;26.80;;;12.30;99.90;;;;;;5016411;28;20044;-76
2022/10/15 05:56:08;;;;;;;63.05;23.58;;;12.30;99.90;;;;;;5033991;28;20021;-76
2022/10/15 05:58:35;;;;;;;69.47;24.45;;;12.30;99.90;;;;;;5016218;28;20021;-76
2022/10/15 06:01:02;;;;;;;74.55;25.45;;;12.60;99.90;;;;;;5033842;28;20026;-76
2022/10/15 06:03:28;;;;;;;78.05;23.80;;;12.50;99.90;;;;;;5016199;28;20051;-76
2022/10/15 06:05:54;;;;;;;68.38;23.95;;;12.30;99.90;;;;;;5033864;28;20034;-76
2022/10/15 06:08:20;;;;;;;70.43;25.55;;;12.30;99.90;;;;;;5033794;28;20025;-76
2022/10/15 06:10:46;;;;;;;71.45;24.10;;;12.30;99.90;;;;;;5033561;28;20048;-76
2022/10/15 06:13:12;;;;;;;72.78;25.50;;;12.30;99.90;;;;;;5033690;28;20072;-75
2022/10/15 06:15:44;;;;;;;79.40;26.13;;;12.30;99.90;;;;;;5016029;28;20025;-77
2022/10/15 06:18:11;;;;;;;75.80;24.17;;;12.40;99.90;;;;;;5033690;28;20044;-76
2022/10/15 06:20:37;;;;;;;84.55;25.77;;;12.30;99.90;;;;;;5015802;28;20025;-76
2022/10/15 06:23:04;;;;;;;81.38;27.30;;;12.40;99.90;;;;;;5033486;28;20025;-76
2022/10/15 06:25:33;;;;;;;83.82;25.65;;;12.30;99.90;;;;;;5033558;28;20060;-76
2022/10/15 06:28:03;;;;;;;83.55;26.27;;;12.30;99.90;;;;;;5015793;28;20045;-76
2022/10/15 06:30:29;;;;;;;78.63;25.02;;;12.40;99.90;;;;;;5033267;28;20030;-76
2022/10/15 06:32:55;;;;;;;80.05;26.02;;;12.40;99.90;;;;;;5033228;28;20387;-75
2022/10/15 06:35:22;;;;;;;80.05;26.20;;;12.50;99.90;;;;;;5033346;28;20408;-76
2022/10/15 06:37:47;;;;;;;70.70;24.42;;;12.50;99.90;;;;;;5033354;28;20045;-76
2022/10/15 06:40:14;;;;;;;74.20;23.95;;;12.50;99.90;;;;;;5015623;28;20083;-75
2022/10/15 06:42:40;;;;;;;77.30;22.25;;;12.50;99.90;;;;;;5033361;28;20104;-75
2022/10/15 06:45:07;;;;;;;68.50;21.95;;;12.60;99.90;;;;;;5015556;28;20065;-76
2022/10/15 06:47:33;;;;;;;77.03;22.00;;;;;;;;;;5056377;23;20045;-77
2022/10/15 06:50:04;;;;;;;72.60;22.50;;;12.50;99.90;;;;;;5015353;28;20078;-77
2022/10/15 06:52:29;;;;;;;75.88;23.80;;;12.90;99.90;;;;;;5033700;28;20013;-77
2022/10/15 06:54:55;;;;;;;67.10;21.98;;;12.60;99.90;;;;;;5015388;28;20468;-77
2022/10/15 06:57:20;;;;;;;64.40;20.85;;;12.60;99.90;;;;;;5044443;28;20033;-77
2022/10/15 06:59:46;;;;;;;68.88;21.33;;;12.70;99.90;;;;;;5034567;28;20021;-77
2022/10/15 07:02:16;;;;;;;58.72;20.25;;;12.60;99.90;;;;;;5054470;28;20529;-77
2022/10/15 07:04:42;;;;;;;60.17;20.45;;;12.70;99.90;;;;;;5057198;28;20025;-77
2022/10/15 07:07:08;;;;;;;69.63;21.05;;;12.70;99.90;;;;;;5038302;28;20036;-77
2022/10/15 07:09:34;;;;;;;63.13;22.02;;;12.70;99.90;;;;;;5055952;28;20087;-77
2022/10/15 07:12:00;;;;;;;66.38;21.70;;;13.50;99.90;;;;;;5038725;28;20024;-77
2022/10/15 07:14:26;;;;;;;70.93;22.13;;;12.80;99.90;;;;;;5039181;28;20534;-77
2022/10/15 07:16:51;;;;;;;69.13;22.52;;;12.80;99.90;;;;;;5039057;28;20045;-76
2022/10/15 07:19:17;;;;;;;54.22;21.63;;;12.80;99.90;;;;;;5056831;28;20021;-77
2022/10/15 07:21:42;;;;;;;65.15;22.25;;;12.80;99.90;;;;;;5056964;28;20025;-76
2022/10/15 07:24:08;;;;;;;54.35;20.33;;;12.90;99.90;;;;;;5057451;28;20426;-76
2022/10/15 07:26:35;;;;;;;56.35;20.55;;;12.90;99.90;;;;;;5056752;28;20461;-76
2022/10/15 07:29:01;;;;;;;62.28;20.20;;;12.90;99.90;;;;;;5038901;28;20029;-76
2022/10/15 07:31:26;;;;;;;55.13;17.13;;;12.90;99.90;;;;;;5057047;28;20028;-77
2022/10/15 07:33:52;;;;;;;48.47;16.33;;;13.00;99.90;;;;;;5057341;28;20013;-77
2022/10/15 07:36:19;;;;;;;44.65;15.25;;;13.00;99.90;;;;;;5039033;28;20017;-76
2022/10/15 07:38:45;;;;;;;42.13;15.52;;;13.10;99.90;;;;;;5056573;28;20108;-74
2022/10/15 07:41:11;;;;;;;38.85;14.95;;;13.20;99.90;;;;;;5056498;28;20025;-75
2022/10/15 07:43:37;;;;;;;38.97;13.93;;;13.10;99.90;;;;;;5038541;28;20052;-75
2022/10/15 07:46:03;;;;;;;32.85;13.13;;;13.10;99.90;;;;;;5038399;28;20112;-73
2022/10/15 07:48:29;;;;;;;31.40;12.68;;;13.30;99.90;;;;;;5038587;28;20025;-75
2022/10/15 07:50:57;;;;;;;29.33;11.73;;;13.30;99.90;;;;;;5056677;28;20060;-75
2022/10/15 07:53:23;;;;;;;29.52;12.43;;;13.30;99.90;;;;;;5056262;28;20032;-74
2022/10/15 07:55:49;;;;;;;27.67;11.85;;;13.30;99.90;;;;;;5056744;28;20021;-75
2022/10/15 07:58:15;;;;;;;26.65;11.23;;;13.30;99.90;;;;;;5056174;28;20025;-75
2022/10/15 08:00:44;;;;;;;30.75;11.63;;;13.40;99.90;;;;;;5056385;28;20029;-74
2022/10/15 08:03:10;;;;;;;26.15;11.80;;;13.40;99.90;;;;;;5038284;28;20025;-74
2022/10/15 08:05:35;;;;;;;26.88;11.68;;;13.50;99.90;;;;;;5038126;28;20506;-75
2022/10/15 08:08:02;;;;;;;28.40;12.45;;;13.50;99.90;;;;;;5038213;28;20123;-75
2022/10/15 08:10:28;;;;;;;26.05;11.45;;;13.50;99.90;;;;;;5055928;28;20495;-74
2022/10/15 08:12:54;;;;;;;30.98;11.73;;;13.50;99.90;;;;;;5037540;28;20036;-75
2022/10/15 08:15:19;;;;;;;25.75;10.75;;;13.60;99.90;;;;;;5055952;28;20025;-76
2022/10/15 08:17:45;;;;;;;25.63;10.77;;;13.60;99.90;;;;;;5055921;28;20021;-75
2022/10/15 08:20:12;;;;;;;23.15;11.30;;;13.60;99.90;;;;;;5037837;28;20472;-75
2022/10/15 08:22:38;;;;;;;23.10;10.85;;;13.60;99.90;;;;;;5055909;28;20025;-76
2022/10/15 08:25:04;;;;;;;26.50;10.07;;;13.60;99.90;;;;;;5037837;28;20499;-75
2022/10/15 08:27:30;;;;;;;22.90;10.73;;;13.60;99.90;;;;;;5055768;28;20036;-76
2022/10/15 08:29:55;;;;;;;23.38;10.43;;;13.60;99.90;;;;;;5037683;28;20480;-75
2022/10/15 08:32:21;;;;;;;20.63;9.07;;;13.70;99.90;;;;;;5037674;28;20021;-75
2022/10/15 08:34:46;;;;;;;22.88;9.60;;;13.80;99.90;;;;;;5055546;28;20074;-75
2022/10/15 08:37:12;;;;;;;21.20;9.55;;;14.00;99.90;;;;;;5055598;28;20033;-75
2022/10/15 08:39:37;;;;;;;22.02;9.52;;;14.00;99.90;;;;;;5037618;28;20032;-75
2022/10/15 08:42:16;;;;;;;19.35;8.85;;;14.10;99.90;;;;;;5055573;28;20426;-75
2022/10/15 08:44:48;;;;;;;19.90;9.18;;;14.20;99.90;;;;;;5055328;28;20025;-75
2022/10/15 08:47:26;;;;;;;20.63;9.27;;;14.20;99.90;;;;;;5055418;28;20031;-74
2022/10/15 08:49:58;;;;;;;20.10;8.50;;;14.50;99.90;;;;;;5055267;28;20547;-76
2022/10/15 08:52:45;;;;;;;19.83;8.88;;;14.50;99.90;;;;;;5037417;28;20386;-75
2022/10/15 08:55:20;;;;;;;17.63;8.23;;;14.70;99.90;;;;;;5037352;28;20033;-75
2022/10/15 08:58:12;;;;;;;17.23;8.10;;;14.80;99.90;;;;;;5055042;28;20483;-75
2022/10/15 09:00:43;;;;;;;17.48;7.50;;;15.00;99.90;;;;;;5055011;28;20025;-74
2022/10/15 09:03:23;;;;;;;16.30;7.72;;;15.20;99.90;;;;;;5055086;28;20111;-74
2022/10/15 09:05:52;;;;;;;14.77;6.80;;;15.40;99.90;;;;;;5055620;28;20024;-74
2022/10/15 09:08:52;;;;;;;15.43;7.57;;;15.50;99.90;;;;;;5054931;28;20029;-75
2022/10/15 09:11:51;;;;;;;12.48;5.95;;;15.50;99.90;;;;;;5054721;28;20035;-74
2022/10/15 09:14:21;;;;;;;;;;;15.40;99.90;;;;;;5055169;28;20049;-74
2022/10/15 09:16:48;;;;;;;11.07;5.15;;;15.40;99.90;;;;;;5054589;28;19905;-74
2022/10/15 09:19:17;;;;;;;13.30;4.70;;;15.40;99.90;;;;;;5054628;28;20021;-74
2022/10/15 09:21:44;;;;;;;;;;;15.30;99.90;;;;;;5054900;28;20021;-74
2022/10/15 09:24:12;;;;;;;10.23;4.95;;;15.20;99.90;;;;;;5053739;28;20340;-74
2022/10/15 09:27:18;;;;;;;11.05;5.93;;;15.20;99.90;;;;;;5054544;28;20092;-74
2022/10/15 09:30:23;;;;;;;10.82;5.10;;;15.10;99.90;;;;;;5036383;28;20021;-74
2022/10/15 09:32:58;;;;;;;12.02;5.00;;;15.00;99.90;;;;;;5036558;28;20392;-74
2022/10/15 09:35:36;;;;;;;12.25;4.82;;;15.00;99.90;;;;;;5036481;28;20032;-74
2022/10/15 09:38:32;;;;;;;10.38;5.57;;;14.90;99.90;;;;;;5054263;28;20028;-74
2022/10/15 09:41:15;;;;;;;9.48;4.63;;;14.90;99.90;;;;;;5054834;28;20025;-74
2022/10/15 09:43:45;;;;;;;15.57;6.13;;;14.90;99.90;;;;;;5054786;28;20033;-73
2022/10/15 09:46:11;;;;;;;12.10;6.25;;;14.90;99.90;;;;;;5054441;28;20071;-75
2022/10/15 09:49:04;;;;;;;11.45;5.05;;;14.90;99.90;;;;;;5054164;28;20117;-75
2022/10/15 09:52:09;;;;;;;10.65;5.68;;;14.80;99.90;;;;;;5054710;28;20033;-78
2022/10/15 09:54:57;;;;;;;12.98;5.82;;;14.70;99.90;;;;;;4973591;28;20023;-75
2022/10/15 09:57:24;;;;;;;13.45;6.13;;;14.70;99.90;;;;;;5052949;28;20082;-78
2022/10/15 10:00:02;;;;;;;12.35;5.80;;;14.70;99.90;;;;;;5056454;28;20048;-79
2022/10/15 10:02:28;;;;;;;13.07;6.10;;;14.70;99.90;;;;;;5037078;28;20056;-76
2022/10/15 10:04:54;;;;;;;11.45;5.63;;;14.60;99.90;;;;;;5054915;28;20364;-78
2022/10/15 10:07:40;;;;;;;14.82;6.72;;;14.70;99.90;;;;;;5053910;28;20036;-76
2022/10/15 10:10:29;;;;;;;22.42;6.97;;;14.80;99.90;;;;;;5035826;28;20494;-76
2022/10/15 10:12:55;;;;;;;15.10;6.90;;;14.80;99.90;;;;;;5036738;28;20146;-76
2022/10/15 10:15:21;;;;;;;13.57;7.05;;;14.80;99.90;;;;;;5035824;28;20480;-76
2022/10/15 10:17:54;;;;;;;15.30;7.47;;;14.90;99.90;;;;;;5053675;28;20028;-75
2022/10/15 10:20:26;;;;;;;15.15;7.82;;;15.00;99.90;;;;;;5035862;28;20029;-78
2022/10/15 10:22:58;;;;;;;15.30;7.07;;;15.00;99.90;;;;;;5055777;28;20099;-78
2022/10/15 10:25:29;;;;;;;15.13;7.38;;;15.00;99.90;;;;;;5037465;28;20032;-73
2022/10/15 10:28:14;;;;;;;13.80;6.75;;;15.10;99.90;;;;;;5035566;28;20383;-75
2022/10/15 10:31:02;;;;;;;14.50;7.10;;;15.10;99.90;;;;;;5053309;28;20021;-76
2022/10/15 10:33:33;;;;;;;16.75;8.23;;;15.00;99.90;;;;;;5036369;28;20397;-76
2022/10/15 10:35:59;;;;;;;11.43;6.22;;;15.10;99.90;;;;;;5054265;28;20032;-76
2022/10/15 10:38:33;;;;;;;12.88;6.78;;;15.20;99.90;;;;;;5054019;28;20025;-78
2022/10/15 10:41:10;;;;;;;14.85;6.75;;;15.90;99.90;;;;;;5036108;28;20031;-77
2022/10/15 10:43:52;;;;;;;14.60;7.32;;;15.00;99.90;;;;;;5054167;28;20029;-75
2022/10/15 10:46:20;;;;;;;13.25;6.70;;;15.00;99.90;;;;;;5053097;28;20021;-75
2022/10/15 10:48:53;;;;;;;13.30;6.78;;;15.00;99.90;;;;;;5035422;28;20391;-74
2022/10/15 10:51:29;;;;;;;12.35;6.60;;;14.90;99.90;;;;;;5053160;28;20056;-75
2022/10/15 10:54:01;;;;;;;12.45;6.10;;;14.90;99.90;;;;;;5035485;28;20040;-75
2022/10/15 10:56:52;;;;;;;9.85;5.05;;;14.90;99.90;;;;;;5052981;28;20021;-74
2022/10/15 10:59:33;;;;;;;11.25;5.28;;;14.90;99.90;;;;;;5053035;28;20475;-75
2022/10/15 11:01:59;;;;;;;11.55;6.43;;;14.90;99.90;;;;;;5053003;28;20395;-75
2022/10/15 11:04:27;;;;;;;10.10;4.35;;;14.90;99.90;;;;;;5052968;28;20025;-75
2022/10/15 11:06:59;;;;;;;10.80;5.00;;;14.90;99.90;;;;;;5035288;28;20025;-75
2022/10/15 11:09:43;;;;;;;10.32;4.22;;;15.00;99.90;;;;;;5052955;28;20630;-75
2022/10/15 11:12:11;;;;;;;8.85;4.45;;;14.90;99.90;;;;;;5053015;28;20116;-75
2022/10/15 11:14:58;;;;;;;8.15;3.97;;;15.60;99.90;;;;;;5053080;28;20388;-76
2022/10/15 11:18:01;;;;;;;7.72;3.47;;;15.00;99.90;;;;;;5034965;28;20021;-75
2022/10/15 11:20:51;;;;;;;7.25;3.65;;;15.00;99.90;;;;;;5052848;28;20399;-75
2022/10/15 11:23:33;;;;;;;6.75;3.20;;;15.00;99.90;;;;;;5053450;28;20106;-75
2022/10/15 11:26:21;;;;;;;6.07;3.33;;;15.10;99.90;;;;;;5052889;28;20033;-75
2022/10/15 11:29:12;;;;;;;7.55;3.25;;;15.00;99.90;;;;;;5052860;28;20032;-75
2022/10/15 11:31:48;;;;;;;9.23;3.78;;;15.10;99.90;;;;;;5021834;28;20036;-75
2022/10/15 11:34:26;;;;;;;12.55;3.30;;;15.10;99.90;;;;;;5034904;28;20032;-75
2022/10/15 11:37:31;;;;;;;6.38;2.55;;;15.20;99.90;;;;;;5035740;28;20472;-75
2022/10/15 11:40:17;;;;;;;5.90;2.50;;;15.20;99.90;;;;;;5034789;28;20060;-75
2022/10/15 11:42:56;;;;;;;5.00;1.73;;;15.20;99.90;;;;;;5053176;28;20104;-75
2022/10/15 11:45:59;;;;;;;3.83;2.55;;;15.20;99.90;;;;;;5034805;28;20009;-75
2022/10/15 11:48:47;;;;;;;4.47;2.15;;;15.20;99.90;;;;;;5037700;28;20036;-75
2022/10/15 11:51:31;;;;;;;3.28;2.08;;;15.20;99.90;;;;;;5038128;28;20025;-75
2022/10/15 11:54:23;;;;;;;5.68;2.10;;;15.30;99.90;;;;;;5056269;28;20310;-76
2022/10/15 11:56:52;;;;;;;4.20;2.13;;;15.20;99.90;;;;;;5027813;28;20495;-75
2022/10/15 11:59:44;;;;;;;4.13;2.05;;;15.30;99.90;;;;;;5056775;28;20036;-75
2022/10/15 12:02:15;;;;;;;4.88;2.20;;;15.30;99.90;;;;;;5056265;28;20029;-75
2022/10/15 12:04:47;;;;;;;3.72;2.38;;;15.40;99.90;;;;;;5056588;28;20021;-75
2022/10/15 12:07:19;;;;;;;4.00;2.05;;;15.40;99.90;;;;;;5038163;28;20017;-75
2022/10/15 12:09:52;;;;;;;5.05;2.30;;;15.40;99.90;;;;;;5055845;28;20544;-75
2022/10/15 12:12:48;;;;;;;6.05;2.45;;;15.40;99.90;;;;;;5038130;28;20018;-75
2022/10/15 12:15:28;;;;;;;3.55;2.25;;;15.40;99.90;;;;;;5055909;28;20021;-75
2022/10/15 12:18:21;;;;;;;3.17;2.60;;;15.50;99.90;;;;;;5056164;28;20112;-75
2022/10/15 12:20:47;;;;;;;6.13;3.38;;;15.50;99.90;;;;;;5027539;28;20044;-75
2022/10/15 12:23:37;;;;;;;5.20;3.40;;;15.50;99.90;;;;;;5037973;28;20025;-75
2022/10/15 12:26:32;;;;;;;5.90;3.45;;;15.60;99.90;;;;;;5037813;28;20544;-75
2022/10/15 12:29:00;;;;;;;5.90;3.38;;;15.70;99.90;;;;;;5056259;28;20021;-73
2022/10/15 12:32:08;;;;;;;5.20;2.95;;;15.70;99.90;;;;;;5055497;28;20480;-75
2022/10/15 12:34:40;;;;;;;6.13;3.27;;;15.70;99.90;;;;;;5024778;28;20033;-75
2022/10/15 12:37:16;;;;;;;4.70;2.90;;;15.80;99.90;;;;;;5055526;28;20263;-75
2022/10/15 12:39:44;;;;;;;5.82;3.03;;;15.90;99.90;;;;;;5037587;28;20029;-75
2022/10/15 12:42:21;;;;;;;7.50;2.92;;;15.90;99.90;;;;;;5055456;28;20029;-75
2022/10/15 12:44:50;;;;;;;4.50;2.90;;;15.80;99.90;;;;;;5037452;28;20033;-75
2022/10/15 12:47:55;;;;;;;3.65;2.30;;;15.80;99.90;;;;;;5055211;28;20406;-75
2022/10/15 12:50:29;;;;;;;3.55;2.60;;;15.80;99.90;;;;;;5055152;28;20403;-75
2022/10/15 12:53:24;;;;;;;4.30;2.85;;;15.80;99.90;;;;;;5037412;28;20469;-75
2022/10/15 12:56:08;;;;;;;4.57;2.17;;;15.80;99.90;;;;;;5051432;28;20029;-75